Time;durP1;ratioP1;P1;durP2;ratioP2;P2;SDS_P1;SDS_P2;PMS_P1;PMS_P2;Temp;Humidity;BMP_temperature;BMP_pressure;BME280_temperature;BME280_humidity;BME280_pressure;Samples;Min_cycle;Max_cycle;Signal;HPM_P1;HPM_P2
2023/05/20 00:01:32;;;;;;;8.60;3.38;;;12.50;99.90;;;;;;5048079;28;20951;-59
2023/05/20 00:03:57;;;;;;;6.90;3.25;;;12.50;99.90;;;;;;5063172;28;20051;-60
2023/05/20 00:06:23;;;;;;;8.10;3.30;;;12.40;99.90;;;;;;5055641;28;20019;-62
2023/05/20 00:08:49;;;;;;;5.90;2.70;;;12.30;99.90;;;;;;5070149;28;20064;-60
2023/05/20 00:11:14;;;;;;;6.40;2.95;;;12.30;99.90;;;;;;5072922;28;20116;-62
2023/05/20 00:13:40;;;;;;;8.90;3.80;;;12.30;99.90;;;;;;5067686;28;20552;-61
2023/05/20 00:16:05;;;;;;;7.15;3.42;;;12.30;99.90;;;;;;5071856;28;20031;-61
2023/05/20 00:18:31;;;;;;;5.50;3.42;;;12.30;99.90;;;;;;5060704;28;20721;-61
2023/05/20 00:20:57;;;;;;;6.22;3.30;;;12.30;99.90;;;;;;5067833;28;20032;-60
2023/05/20 00:23:23;;;;;;;12.40;3.78;;;12.30;99.90;;;;;;5071008;28;20091;-60
2023/05/20 00:25:49;;;;;;;6.45;3.75;;;12.30;99.90;;;;;;5064289;28;20033;-60
2023/05/20 00:28:14;;;;;;;6.72;3.42;;;12.30;99.90;;;;;;5061273;28;20028;-59
2023/05/20 00:30:40;;;;;;;5.80;3.05;;;12.30;99.90;;;;;;5054380;28;20074;-60
2023/05/20 00:33:06;;;;;;;6.85;3.65;;;12.30;99.90;;;;;;5071358;28;20044;-60
2023/05/20 00:35:32;;;;;;;8.02;3.08;;;12.30;99.90;;;;;;5052125;28;20393;-59
2023/05/20 00:37:58;;;;;;;7.35;3.20;;;12.30;99.90;;;;;;5069799;28;20032;-59
2023/05/20 00:40:24;;;;;;;8.02;3.60;;;12.20;99.90;;;;;;5064528;28;20024;-60
2023/05/20 00:42:50;;;;;;;11.60;3.83;;;12.20;99.90;;;;;;5067681;28;20366;-60
2023/05/20 00:45:16;;;;;;;6.43;3.67;;;12.20;99.90;;;;;;5066066;28;20016;-60
2023/05/20 00:47:41;;;;;;;7.18;3.05;;;12.20;99.90;;;;;;5069501;28;20493;-62
2023/05/20 00:50:09;;;;;;;6.93;3.20;;;12.10;99.90;;;;;;5067697;28;20020;-60
2023/05/20 00:52:38;;;;;;;8.68;3.63;;;12.20;99.90;;;;;;5071232;28;20039;-60
2023/05/20 00:55:04;;;;;;;8.13;3.88;;;12.10;99.90;;;;;;5072306;28;20028;-60
2023/05/20 00:57:30;;;;;;;7.18;4.13;;;12.10;99.90;;;;;;5071142;28;20110;-60
2023/05/20 00:59:56;;;;;;;7.05;3.58;;;12.10;99.90;;;;;;5061708;28;20396;-60
2023/05/20 01:02:21;;;;;;;6.40;3.10;;;12.00;99.90;;;;;;5069046;28;20027;-60
2023/05/20 01:04:47;;;;;;;7.70;3.45;;;12.00;99.90;;;;;;5071596;28;20032;-60
2023/05/20 01:07:16;;;;;;;8.15;4.35;;;12.00;99.90;;;;;;5048427;28;20400;-67
2023/05/20 01:09:42;;;;;;;11.15;3.78;;;12.00;99.90;;;;;;5066069;28;20093;-64
2023/05/20 01:12:22;;;;;;;9.25;3.97;;;12.00;99.90;;;;;;5070136;28;20016;-60
2023/05/20 01:14:55;;;;;;;8.50;4.03;;;12.00;99.90;;;;;;5061372;28;20068;-60
2023/05/20 01:17:25;;;;;;;7.22;3.95;;;12.00;99.90;;;;;;5071695;28;20029;-61
2023/05/20 01:19:53;;;;;;;7.43;3.70;;;11.90;99.90;;;;;;5068231;28;20049;-62
2023/05/20 01:22:19;;;;;;;7.45;3.30;;;11.90;99.90;;;;;;5069232;28;20024;-60
2023/05/20 01:24:52;;;;;;;7.30;3.75;;;11.90;99.90;;;;;;5053829;28;20028;-59
2023/05/20 01:27:19;;;;;;;5.82;3.60;;;11.90;99.90;;;;;;5054776;28;20114;-68
2023/05/20 01:29:49;;;;;;;8.25;3.50;;;11.90;99.90;;;;;;5034027;28;20067;-63
2023/05/20 01:32:25;;;;;;;7.00;3.85;;;11.90;99.90;;;;;;5054271;28;20020;-60
2023/05/20 01:34:52;;;;;;;9.18;4.13;;;11.90;99.90;;;;;;5068978;28;20358;-62
2023/05/20 01:37:20;;;;;;;7.65;3.83;;;11.90;99.90;;;;;;5051688;28;20029;-62
2023/05/20 01:39:48;;;;;;;8.07;3.42;;;11.90;99.90;;;;;;5051017;28;20031;-61
2023/05/20 01:42:15;;;;;;;6.75;3.92;;;12.00;99.90;;;;;;5052372;28;20032;-61
2023/05/20 01:44:40;;;;;;;7.47;3.88;;;11.90;99.90;;;;;;5069513;28;20419;-62
2023/05/20 01:47:06;;;;;;;10.07;4.10;;;11.90;99.90;;;;;;5070621;28;20040;-63
2023/05/20 01:49:32;;;;;;;8.50;4.47;;;12.00;99.90;;;;;;5071057;28;20027;-61
2023/05/20 01:51:58;;;;;;;8.57;3.85;;;12.00;99.90;;;;;;5069823;28;20033;-60
2023/05/20 01:54:23;;;;;;;6.55;3.72;;;12.00;99.90;;;;;;5071173;28;20055;-61
2023/05/20 01:56:49;;;;;;;8.77;4.00;;;12.00;99.90;;;;;;5070446;28;20052;-59
2023/05/20 01:59:15;;;;;;;7.28;4.28;;;12.00;99.90;;;;;;5071169;28;20358;-60
2023/05/20 02:01:40;;;;;;;7.30;4.10;;;12.00;99.90;;;;;;5071201;28;20029;-62
2023/05/20 02:04:06;;;;;;;7.97;3.85;;;12.00;99.90;;;;;;5052377;28;20033;-60
2023/05/20 02:06:31;;;;;;;9.10;4.07;;;12.00;99.90;;;;;;5074302;28;20029;-61
2023/05/20 02:08:57;;;;;;;8.68;4.32;;;12.00;99.90;;;;;;5072594;28;20366;-60
2023/05/20 02:11:23;;;;;;;7.60;4.10;;;11.90;99.90;;;;;;5072336;28;20028;-60
2023/05/20 02:13:49;;;;;;;9.20;3.90;;;11.80;99.90;;;;;;5072477;28;20032;-60
2023/05/20 02:16:15;;;;;;;11.10;4.65;;;11.80;99.90;;;;;;5070143;28;20029;-67
2023/05/20 02:18:41;;;;;;;7.57;4.28;;;11.80;99.90;;;;;;5066429;28;20370;-60
2023/05/20 02:21:07;;;;;;;11.27;4.38;;;11.80;99.90;;;;;;5038315;28;20048;-65
2023/05/20 02:23:33;;;;;;;6.80;3.95;;;11.80;99.90;;;;;;5072921;28;20068;-61
2023/05/20 02:25:58;;;;;;;7.25;4.03;;;11.70;99.90;;;;;;5056476;28;20046;-63
2023/05/20 02:28:24;;;;;;;8.65;4.45;;;11.70;99.90;;;;;;5074056;28;20033;-59
2023/05/20 02:30:50;;;;;;;9.30;4.03;;;11.60;99.90;;;;;;5074682;28;20381;-62
2023/05/20 02:33:16;;;;;;;8.38;3.70;;;11.60;99.90;;;;;;5073684;28;20039;-60
2023/05/20 02:35:42;;;;;;;8.20;4.07;;;11.60;99.90;;;;;;5072097;28;20044;-60
2023/05/20 02:38:07;;;;;;;8.20;4.30;;;11.60;99.90;;;;;;5072498;28;20477;-60
2023/05/20 02:40:33;;;;;;;5.88;3.35;;;11.60;99.90;;;;;;5056508;28;20027;-59
2023/05/20 02:43:00;;;;;;;6.97;4.22;;;11.60;99.90;;;;;;5073919;28;20119;-60
2023/05/20 02:45:26;;;;;;;7.30;3.97;;;11.50;99.90;;;;;;5049726;28;20467;-60
2023/05/20 02:47:51;;;;;;;7.90;4.28;;;11.50;99.90;;;;;;5072832;28;20033;-60
2023/05/20 02:50:17;;;;;;;6.38;4.25;;;11.50;99.90;;;;;;5071525;28;20472;-60
2023/05/20 02:52:44;;;;;;;10.98;4.75;;;11.40;99.90;;;;;;5073127;28;20037;-60
2023/05/20 02:55:10;;;;;;;8.20;4.15;;;11.40;99.90;;;;;;5075098;28;20020;-60
2023/05/20 02:57:38;;;;;;;9.50;4.70;;;11.30;99.90;;;;;;5058608;28;20119;-60
2023/05/20 03:00:09;;;;;;;7.35;3.75;;;11.30;99.90;;;;;;5074156;28;20054;-60
2023/05/20 03:02:35;;;;;;;;;;;11.20;99.90;;;;;;5046808;28;20122;-64
2023/05/20 03:05:01;;;;;;;7.78;4.18;;;11.10;99.90;;;;;;5072519;28;19979;-60
2023/05/20 03:07:27;;;;;;;9.80;4.68;;;11.00;99.90;;;;;;5072103;28;20040;-60
2023/05/20 03:09:52;;;;;;;8.20;4.20;;;11.00;99.90;;;;;;5044794;28;20029;-60
2023/05/20 03:12:18;;;;;;;7.70;4.35;;;10.90;99.90;;;;;;5069924;28;20381;-60
2023/05/20 03:14:44;;;;;;;9.20;4.75;;;10.80;99.90;;;;;;5067190;28;20027;-61
2023/05/20 03:17:10;;;;;;;11.25;4.65;;;10.80;99.90;;;;;;5071723;28;20036;-60
2023/05/20 03:19:36;;;;;;;8.88;4.00;;;10.70;99.90;;;;;;5052778;28;20029;-63
2023/05/20 03:22:02;;;;;;;5.75;4.15;;;10.60;99.90;;;;;;5055994;28;20021;-60
2023/05/20 03:24:27;;;;;;;10.13;4.53;;;10.60;99.90;;;;;;5069680;28;20029;-59
2023/05/20 03:26:54;;;;;;;8.68;4.43;;;10.50;99.90;;;;;;5054818;28;20061;-61
2023/05/20 03:29:22;;;;;;;8.88;4.05;;;10.50;99.90;;;;;;5054127;28;20492;-62
2023/05/20 03:31:47;;;;;;;8.80;4.28;;;10.50;99.90;;;;;;5055084;28;20024;-59
2023/05/20 03:34:13;;;;;;;7.70;3.85;;;10.40;99.90;;;;;;5072355;28;20025;-59
2023/05/20 03:36:38;;;;;;;7.72;4.43;;;10.40;99.90;;;;;;5073826;28;20042;-61
2023/05/20 03:39:04;;;;;;;6.88;4.07;;;10.30;99.90;;;;;;5070086;28;20047;-62
2023/05/20 03:41:30;;;;;;;6.22;4.38;;;10.30;99.90;;;;;;5073234;28;20123;-64
2023/05/20 03:43:56;;;;;;;13.85;4.45;;;10.30;99.90;;;;;;5056849;28;20370;-67
2023/05/20 03:46:22;;;;;;;7.13;3.95;;;10.20;99.90;;;;;;5066259;28;20082;-61
2023/05/20 03:48:47;;;;;;;10.65;4.88;;;10.20;99.90;;;;;;5035951;28;20096;-63
2023/05/20 03:51:13;;;;;;;7.32;3.90;;;10.20;99.90;;;;;;5070462;28;20039;-61
2023/05/20 03:53:38;;;;;;;10.15;4.45;;;10.20;99.90;;;;;;5055206;28;20029;-64
2023/05/20 03:56:04;;;;;;;9.70;4.38;;;10.20;99.90;;;;;;5071588;28;20070;-61
2023/05/20 03:58:30;;;;;;;7.60;4.20;;;10.10;99.90;;;;;;5053916;28;20052;-62
2023/05/20 04:00:56;;;;;;;9.75;4.60;;;10.10;99.90;;;;;;5052002;28;20078;-59
2023/05/20 04:03:22;;;;;;;9.00;5.05;;;10.10;99.90;;;;;;5071174;28;20029;-60
2023/05/20 04:05:48;;;;;;;7.82;4.03;;;10.00;99.90;;;;;;5072382;28;20374;-60
2023/05/20 04:08:14;;;;;;;11.90;6.22;;;10.00;99.90;;;;;;5071411;28;20072;-59
2023/05/20 04:10:42;;;;;;;8.52;4.47;;;10.00;99.90;;;;;;5070978;28;20070;-60
2023/05/20 04:13:09;;;;;;;8.30;4.70;;;9.90;99.90;;;;;;5072827;28;20070;-60
2023/05/20 04:15:35;;;;;;;8.27;5.32;;;9.90;99.90;;;;;;5068818;28;20090;-60
2023/05/20 04:18:01;;;;;;;8.18;4.72;;;9.90;99.90;;;;;;5071847;28;20107;-61
2023/05/20 04:20:27;;;;;;;7.55;4.68;;;9.90;99.90;;;;;;5072235;28;20052;-59
2023/05/20 04:22:54;;;;;;;9.52;4.47;;;9.90;99.90;;;;;;5071661;28;20028;-60
2023/05/20 04:25:19;;;;;;;8.18;4.53;;;9.90;99.90;;;;;;5067300;28;20019;-62
2023/05/20 04:27:45;;;;;;;6.65;4.07;;;9.90;99.90;;;;;;5055375;28;20033;-60
2023/05/20 04:30:11;;;;;;;8.07;4.70;;;9.90;99.90;;;;;;5064645;28;20032;-60
2023/05/20 04:32:38;;;;;;;10.13;4.70;;;9.90;99.90;;;;;;5064505;28;20021;-60
2023/05/20 04:35:10;;;;;;;8.30;4.93;;;9.90;99.90;;;;;;5057218;28;20028;-60
2023/05/20 04:37:36;;;;;;;10.32;4.32;;;9.90;99.90;;;;;;5072681;28;20373;-59
2023/05/20 04:40:05;;;;;;;9.95;5.32;;;10.00;99.90;;;;;;5072202;28;20533;-59
2023/05/20 04:42:32;;;;;;;10.88;4.57;;;10.00;99.90;;;;;;5069806;28;20058;-59
2023/05/20 04:45:00;;;;;;;14.43;4.50;;;10.00;99.90;;;;;;5071566;28;20024;-60
2023/05/20 04:47:29;;;;;;;8.73;4.32;;;10.10;99.90;;;;;;5067935;28;20044;-60
2023/05/20 04:49:56;;;;;;;9.18;5.05;;;10.10;99.90;;;;;;5071556;28;20081;-59
2023/05/20 04:52:22;;;;;;;9.55;5.03;;;10.20;99.90;;;;;;5069578;28;20040;-61
2023/05/20 04:54:49;;;;;;;8.48;4.70;;;10.20;99.90;;;;;;5071329;28;20028;-59
2023/05/20 04:57:16;;;;;;;8.10;4.03;;;10.30;99.90;;;;;;5070604;28;20041;-59
2023/05/20 04:59:41;;;;;;;8.68;4.53;;;10.30;99.90;;;;;;5040932;28;20414;-64
2023/05/20 05:02:07;;;;;;;12.65;4.80;;;10.40;99.90;;;;;;5067659;28;20476;-59
2023/05/20 05:04:33;;;;;;;9.88;5.03;;;10.50;99.90;;;;;;5067145;28;20496;-62
2023/05/20 05:06:58;;;;;;;7.90;4.13;;;10.50;99.90;;;;;;5060219;28;20044;-59
2023/05/20 05:09:24;;;;;;;8.55;4.60;;;10.60;99.90;;;;;;5061647;28;20059;-59
2023/05/20 05:11:50;;;;;;;9.80;4.68;;;10.70;99.90;;;;;;5054608;28;20063;-59
2023/05/20 05:14:16;;;;;;;12.25;4.18;;;10.80;99.90;;;;;;5065509;28;20428;-68
2023/05/20 05:16:41;;;;;;;7.28;3.60;;;10.80;99.90;;;;;;5062786;28;20024;-59
2023/05/20 05:19:07;;;;;;;6.32;3.25;;;10.90;99.90;;;;;;5071816;28;20028;-60
2023/05/20 05:21:33;;;;;;;5.53;3.17;;;11.10;99.90;;;;;;5070797;28;20169;-62
2023/05/20 05:23:58;;;;;;;6.93;3.63;;;11.20;99.90;;;;;;5068594;28;20359;-63
2023/05/20 05:26:25;;;;;;;7.95;3.13;;;11.30;99.90;;;;;;5041256;28;20021;-62
2023/05/20 05:28:53;;;;;;;7.45;3.53;;;11.40;99.90;;;;;;5068016;28;20037;-63
2023/05/20 05:31:18;;;;;;;7.72;3.30;;;11.50;99.90;;;;;;5057532;28;20039;-68
2023/05/20 05:33:44;;;;;;;7.28;3.63;;;11.70;99.90;;;;;;5055048;28;20473;-62
2023/05/20 05:36:09;;;;;;;6.95;3.20;;;11.80;99.90;;;;;;5068658;28;20021;-59
2023/05/20 05:38:35;;;;;;;5.90;3.17;;;11.90;99.90;;;;;;5070900;28;20028;-60
2023/05/20 05:41:01;;;;;;;5.75;3.35;;;12.00;99.90;;;;;;5072713;28;20029;-60
2023/05/20 05:43:26;;;;;;;4.88;2.88;;;12.10;99.90;;;;;;5073969;28;20021;-63
2023/05/20 05:45:52;;;;;;;7.70;3.28;;;12.10;99.90;;;;;;5072843;28;20074;-62
2023/05/20 05:48:17;;;;;;;4.53;3.15;;;12.20;99.90;;;;;;5057350;28;20503;-63
2023/05/20 05:50:45;;;;;;;6.55;2.80;;;12.30;99.90;;;;;;5073132;28;20024;-63
2023/05/20 05:53:10;;;;;;;5.03;2.65;;;12.30;99.90;;;;;;5040095;28;20470;-66
2023/05/20 05:55:36;;;;;;;4.57;2.80;;;12.40;99.90;;;;;;5073761;28;20051;-69
2023/05/20 05:58:01;;;;;;;7.35;3.22;;;12.40;99.90;;;;;;5072288;28;20066;-64
2023/05/20 06:00:27;;;;;;;6.35;3.20;;;12.50;99.90;;;;;;5072499;28;20016;-59
2023/05/20 06:02:53;;;;;;;7.28;3.42;;;12.50;99.90;;;;;;5046625;28;20047;-62
2023/05/20 06:05:18;;;;;;;6.05;2.88;;;12.70;99.90;;;;;;5074160;28;20025;-59
2023/05/20 06:07:44;;;;;;;4.55;2.80;;;12.70;99.90;;;;;;5072935;28;20390;-64
2023/05/20 06:10:10;;;;;;;6.57;2.88;;;12.80;99.90;;;;;;5075091;28;20378;-61
2023/05/20 06:12:35;;;;;;;5.18;2.80;;;12.80;99.90;;;;;;5072432;28;20500;-61
2023/05/20 06:15:01;;;;;;;7.55;3.35;;;12.90;99.90;;;;;;5065749;28;20070;-65
2023/05/20 06:17:26;;;;;;;6.28;2.97;;;12.90;99.90;;;;;;5054527;28;20036;-63
2023/05/20 06:19:52;;;;;;;6.22;2.95;;;13.00;99.90;;;;;;5074543;28;20035;-59
2023/05/20 06:22:18;;;;;;;5.72;2.63;;;13.00;99.90;;;;;;5073895;28;20139;-60
2023/05/20 06:24:43;;;;;;;6.25;2.50;;;13.10;99.90;;;;;;5066561;28;20074;-60
2023/05/20 06:27:09;;;;;;;5.60;2.60;;;13.20;99.90;;;;;;5063414;28;20495;-63
2023/05/20 06:29:35;;;;;;;5.97;2.95;;;13.30;99.90;;;;;;5074399;28;20129;-60
2023/05/20 06:32:00;;;;;;;4.38;2.40;;;13.30;99.90;;;;;;5054600;28;20020;-60
2023/05/20 06:34:26;;;;;;;4.72;2.60;;;13.40;99.90;;;;;;5072978;28;20020;-60
2023/05/20 06:36:52;;;;;;;3.88;2.55;;;13.50;99.90;;;;;;5071628;28;20039;-60
2023/05/20 06:39:17;;;;;;;4.60;2.63;;;13.60;99.90;;;;;;5074516;28;20024;-61
2023/05/20 06:41:43;;;;;;;6.75;2.60;;;13.70;99.90;;;;;;5067461;28;20539;-62
2023/05/20 06:44:09;;;;;;;3.85;2.55;;;13.80;99.90;;;;;;5072174;28;20036;-60
2023/05/20 06:46:35;;;;;;;5.55;2.75;;;13.90;99.90;;;;;;5066621;28;20020;-59
2023/05/20 06:49:00;;;;;;;4.25;2.40;;;13.90;99.90;;;;;;5038693;28;20128;-61
2023/05/20 06:51:27;;;;;;;5.88;2.72;;;13.90;99.90;;;;;;5059506;28;20376;-63
2023/05/20 06:53:52;;;;;;;6.95;3.80;;;14.00;99.90;;;;;;5069919;28;20039;-61
2023/05/20 06:56:18;;;;;;;5.20;2.60;;;14.10;99.90;;;;;;5067695;28;20025;-60
2023/05/20 06:58:44;;;;;;;6.25;3.05;;;14.20;99.90;;;;;;5056677;28;20039;-60
2023/05/20 07:01:09;;;;;;;6.03;2.92;;;14.30;99.90;;;;;;5074994;28;20039;-62
2023/05/20 07:03:35;;;;;;;4.93;2.80;;;14.30;99.90;;;;;;5074405;28;20100;-60
2023/05/20 07:06:01;;;;;;;5.43;2.92;;;14.40;99.90;;;;;;5073777;28;20104;-61
2023/05/20 07:08:26;;;;;;;9.23;2.90;;;14.50;99.90;;;;;;5073782;28;20111;-61
2023/05/20 07:10:55;;;;;;;4.88;2.55;;;14.60;99.90;;;;;;5074426;28;20009;-60
2023/05/20 07:13:22;;;;;;;4.63;2.55;;;14.60;99.90;;;;;;5074487;28;20024;-61
2023/05/20 07:15:48;;;;;;;5.75;2.70;;;14.70;99.90;;;;;;5056535;28;20020;-60
2023/05/20 07:18:14;;;;;;;7.18;2.75;;;14.80;99.90;;;;;;5056205;28;20024;-61
2023/05/20 07:20:40;;;;;;;6.00;2.72;;;14.90;99.90;;;;;;5074560;28;20016;-61
2023/05/20 07:23:06;;;;;;;4.43;2.67;;;15.00;99.90;;;;;;5074651;28;20540;-62
2023/05/20 07:25:31;;;;;;;3.88;2.42;;;15.10;99.90;;;;;;5073944;28;20063;-61
2023/05/20 07:27:59;;;;;;;5.07;2.67;;;15.10;99.90;;;;;;5074245;28;20115;-60
2023/05/20 07:30:25;;;;;;;3.88;2.53;;;15.20;99.90;;;;;;5073739;28;20095;-63
2023/05/20 07:32:51;;;;;;;5.72;3.30;;;15.30;99.90;;;;;;5074367;28;20031;-60
2023/05/20 07:35:16;;;;;;;9.38;3.28;;;15.30;99.90;;;;;;5074327;28;20020;-61
2023/05/20 07:37:42;;;;;;;5.05;3.05;;;15.40;99.90;;;;;;5073925;28;20028;-61
2023/05/20 07:40:08;;;;;;;6.35;2.90;;;15.40;99.90;;;;;;5074209;28;20024;-60
2023/05/20 07:42:34;;;;;;;5.63;3.25;;;15.50;99.90;;;;;;5074261;28;20029;-61
2023/05/20 07:44:59;;;;;;;5.75;2.72;;;15.50;99.90;;;;;;5073924;28;20024;-61
2023/05/20 07:47:25;;;;;;;4.57;3.00;;;15.60;99.90;;;;;;5074035;28;20052;-60
2023/05/20 07:49:51;;;;;;;5.80;2.95;;;15.60;99.90;;;;;;5074002;28;20029;-61
2023/05/20 07:52:16;;;;;;;5.32;2.85;;;15.70;99.90;;;;;;5055398;28;20030;-61
2023/05/20 07:54:42;;;;;;;5.25;3.10;;;15.70;99.90;;;;;;5074069;28;20033;-62
2023/05/20 07:57:07;;;;;;;4.95;2.83;;;15.80;99.90;;;;;;5073817;28;20040;-61
2023/05/20 07:59:33;;;;;;;4.88;2.80;;;15.90;99.70;;;;;;5073000;28;20105;-61
2023/05/20 08:01:59;;;;;;;7.00;3.58;;;15.90;99.60;;;;;;5073512;28;20112;-61
2023/05/20 08:04:25;;;;;;;5.43;2.88;;;16.00;99.90;;;;;;5055621;28;20025;-60
2023/05/20 08:06:52;;;;;;;7.22;3.15;;;16.10;99.50;;;;;;5073236;28;20522;-64
2023/05/20 08:09:18;;;;;;;4.50;2.72;;;16.20;99.90;;;;;;5073493;28;20037;-64
2023/05/20 08:11:44;;;;;;;4.97;2.97;;;16.20;98.50;;;;;;5073901;28;20069;-63
2023/05/20 08:14:09;;;;;;;4.82;2.58;;;16.30;97.20;;;;;;5072907;28;20099;-63
2023/05/20 08:16:36;;;;;;;5.18;2.83;;;16.30;97.20;;;;;;5055519;28;20016;-61
2023/05/20 08:19:01;;;;;;;4.22;2.40;;;16.40;96.50;;;;;;5073562;28;20023;-63
2023/05/20 08:21:27;;;;;;;4.18;2.70;;;16.40;96.30;;;;;;5051465;28;20041;-60
2023/05/20 08:23:53;;;;;;;4.47;2.30;;;16.40;95.80;;;;;;5053329;28;20393;-63
2023/05/20 08:26:18;;;;;;;4.03;2.40;;;16.50;95.70;;;;;;5035286;28;20127;-64
2023/05/20 08:28:45;;;;;;;5.05;2.38;;;16.40;95.30;;;;;;5052628;28;20037;-66
2023/05/20 08:31:11;;;;;;;5.68;2.65;;;16.60;95.60;;;;;;5053286;28;20470;-61
2023/05/20 08:33:36;;;;;;;5.00;2.65;;;16.60;95.70;;;;;;5052764;28;20064;-62
2023/05/20 08:36:02;;;;;;;4.75;2.65;;;16.70;95.20;;;;;;5053163;28;20044;-62
2023/05/20 08:38:27;;;;;;;3.75;2.30;;;16.80;94.60;;;;;;5053230;28;20070;-61
2023/05/20 08:40:55;;;;;;;3.30;2.20;;;16.90;94.30;;;;;;5052541;28;20025;-62
2023/05/20 08:43:22;;;;;;;4.03;2.22;;;17.00;93.20;;;;;;5053356;28;20489;-62
2023/05/20 08:45:48;;;;;;;4.20;2.22;;;17.00;93.00;;;;;;5053394;28;20021;-67
2023/05/20 08:48:16;;;;;;;5.03;2.60;;;17.00;92.20;;;;;;5052322;28;20103;-67
2023/05/20 08:50:48;;;;;;;4.18;2.13;;;17.10;92.10;;;;;;5035097;28;20045;-61
2023/05/20 08:53:14;;;;;;;3.58;1.83;;;17.10;90.60;;;;;;5053157;28;20108;-61
2023/05/20 08:55:47;;;;;;;5.32;2.60;;;17.10;90.40;;;;;;5052604;28;20108;-61
2023/05/20 08:58:15;;;;;;;6.55;2.35;;;17.20;90.30;;;;;;5052894;28;20056;-62
2023/05/20 09:00:40;;;;;;;4.00;2.40;;;17.20;91.40;;;;;;5052987;28;20470;-61
2023/05/20 09:03:06;;;;;;;4.13;2.28;;;17.30;91.10;;;;;;5052322;28;20033;-61
2023/05/20 09:05:33;;;;;;;4.03;1.90;;;17.40;90.90;;;;;;5053139;28;20032;-60
2023/05/20 09:08:09;;;;;;;3.95;1.92;;;17.50;90.50;;;;;;5053111;28;20033;-60
2023/05/20 09:10:38;;;;;;;3.40;2.35;;;17.50;88.30;;;;;;5052119;28;20013;-62
2023/05/20 09:13:05;;;;;;;3.50;1.95;;;17.60;90.20;;;;;;5035081;28;20029;-60
2023/05/20 09:15:31;;;;;;;3.03;1.67;;;17.60;88.00;;;;;;5056918;28;20048;-61
2023/05/20 09:18:05;;;;;;;7.53;2.00;;;17.50;85.70;;;;;;5056685;28;20025;-61
2023/05/20 09:20:39;;;;;;;5.03;1.70;;;17.40;84.00;;;;;;5056861;28;20025;-62
2023/05/20 09:23:07;;;;;;;3.47;1.90;;;17.40;85.70;;;;;;5056303;28;20025;-61
2023/05/20 09:25:34;;;;;;;4.28;2.15;;;17.50;87.20;;;;;;5056727;28;20017;-62
2023/05/20 09:28:00;;;;;;;3.63;1.67;;;17.60;84.30;;;;;;5056765;28;20028;-62
2023/05/20 09:30:25;;;;;;;3.75;1.67;;;17.70;81.50;;;;;;5055873;28;20025;-61
2023/05/20 09:32:59;;;;;;;4.10;2.08;;;17.70;81.60;;;;;;5056775;28;20107;-60
2023/05/20 09:35:26;;;;;;;2.88;2.00;;;17.70;82.00;;;;;;5056504;28;20025;-61
2023/05/20 09:37:57;;;;;;;2.97;1.58;;;17.80;81.70;;;;;;5056195;28;20025;-61
2023/05/20 09:40:25;;;;;;;4.45;2.35;;;18.00;82.10;;;;;;5038631;28;20424;-63
2023/05/20 09:43:01;;;;;;;4.20;1.92;;;18.20;83.40;;;;;;5056679;28;20083;-64
2023/05/20 09:45:27;;;;;;;3.67;1.70;;;18.30;81.60;;;;;;5056057;28;20027;-61
2023/05/20 09:47:54;;;;;;;4.90;2.40;;;18.30;79.10;;;;;;5056251;28;20033;-60
2023/05/20 09:50:20;;;;;;;5.43;2.13;;;18.40;78.50;;;;;;5057662;28;20397;-61
2023/05/20 09:52:48;;;;;;;5.18;2.03;;;18.40;78.50;;;;;;5075960;28;20016;-63
2023/05/20 09:55:15;;;;;;;4.20;1.92;;;18.50;78.80;;;;;;5076290;28;20076;-61
2023/05/20 09:57:41;;;;;;;4.25;1.92;;;18.50;77.10;;;;;;5076049;28;20505;-63
2023/05/20 10:00:07;;;;;;;4.40;2.80;;;18.40;77.20;;;;;;5075433;28;20042;-60
2023/05/20 10:02:34;;;;;;;4.20;1.95;;;18.40;80.00;;;;;;5076039;28;20033;-61
2023/05/20 10:05:05;;;;;;;5.25;2.10;;;18.50;79.90;;;;;;5057841;28;20027;-61
2023/05/20 10:07:52;;;;;;;3.95;1.70;;;18.70;77.90;;;;;;5076372;28;20036;-61
2023/05/20 10:10:47;;;;;;;3.92;1.77;;;18.80;78.40;;;;;;5057948;28;20073;-61
2023/05/20 10:13:46;;;;;;;4.35;1.58;;;19.10;78.60;;;;;;5075371;28;20103;-61
2023/05/20 10:16:36;;;;;;;5.18;1.85;;;19.10;74.70;;;;;;5058144;28;20024;-62
2023/05/20 10:19:16;;;;;;;3.88;1.92;;;19.10;73.60;;;;;;5075485;28;20068;-62
2023/05/20 10:21:42;;;;;;;3.05;1.60;;;18.90;74.10;;;;;;5075800;28;20500;-63
2023/05/20 10:24:09;;;;;;;2.45;1.60;;;18.80;74.40;;;;;;5075691;28;20024;-61
2023/05/20 10:26:41;;;;;;;5.53;1.70;;;18.60;74.40;;;;;;5074623;28;20044;-60
2023/05/20 10:29:17;;;;;;;3.25;1.67;;;18.60;76.90;;;;;;5057485;28;20034;-60
2023/05/20 10:31:51;;;;;;;2.65;1.40;;;18.70;78.80;;;;;;5075862;28;20024;-64
2023/05/20 10:34:19;;;;;;;2.47;1.40;;;19.00;77.30;;;;;;5074919;28;20035;-62
2023/05/20 10:36:54;;;;;;;2.35;1.60;;;19.20;76.70;;;;;;5075500;28;20017;-68
2023/05/20 10:39:33;;;;;;;3.40;1.80;;;19.20;73.70;;;;;;5075428;28;20495;-61
2023/05/20 10:42:09;;;;;;;3.03;1.60;;;19.20;73.40;;;;;;5074868;28;20028;-64
2023/05/20 10:44:45;;;;;;;3.47;1.80;;;19.30;74.00;;;;;;5075503;28;20048;-66
2023/05/20 10:47:12;;;;;;;3.75;1.80;;;19.40;72.40;;;;;;5074784;28;20512;-67
2023/05/20 10:49:45;;;;;;;4.03;1.60;;;19.40;73.00;;;;;;5075109;28;20024;-61
2023/05/20 10:52:11;;;;;;;3.53;1.88;;;19.40;72.80;;;;;;5070273;28;20528;-62
2023/05/20 10:54:54;;;;;;;2.40;1.50;;;19.40;71.90;;;;;;5071371;28;20032;-63
2023/05/20 10:57:20;;;;;;;4.55;1.90;;;19.40;70.90;;;;;;5072454;28;20098;-63
2023/05/20 10:59:46;;;;;;;3.03;1.65;;;19.40;72.50;;;;;;5072870;28;20112;-63
2023/05/20 11:02:14;;;;;;;3.70;1.48;;;19.40;72.40;;;;;;5073805;28;20100;-62
2023/05/20 11:04:42;;;;;;;3.22;1.65;;;19.40;70.60;;;;;;5072589;28;20070;-63
2023/05/20 11:07:08;;;;;;;4.13;1.75;;;19.40;72.40;;;;;;5073182;28;20036;-69
2023/05/20 11:09:34;;;;;;;2.83;1.48;;;19.40;71.90;;;;;;5074104;28;20381;-61
2023/05/20 11:12:00;;;;;;;5.70;1.90;;;19.40;71.30;;;;;;5075084;28;20091;-63
2023/05/20 11:14:29;;;;;;;3.70;1.40;;;19.30;71.70;;;;;;5058907;28;20021;-62
2023/05/20 11:16:59;;;;;;;5.32;2.00;;;19.30;72.50;;;;;;5054439;28;20072;-63
2023/05/20 11:19:26;;;;;;;2.85;1.60;;;19.20;70.60;;;;;;5058669;28;20082;-61
2023/05/20 11:21:52;;;;;;;4.25;1.60;;;19.20;70.50;;;;;;5074505;28;20032;-61
2023/05/20 11:24:26;;;;;;;2.78;1.30;;;19.30;70.90;;;;;;5073138;28;20024;-60
2023/05/20 11:26:52;;;;;;;3.38;1.77;;;19.40;71.10;;;;;;5073419;28;20052;-61
2023/05/20 11:29:20;;;;;;;2.53;1.65;;;19.60;70.60;;;;;;5074185;28;20083;-64
2023/05/20 11:31:48;;;;;;;5.25;1.38;;;19.80;70.30;;;;;;5061127;28;20040;-62
2023/05/20 11:34:13;;;;;;;3.47;1.40;;;20.00;69.40;;;;;;5066962;28;20025;-62
2023/05/20 11:36:42;;;;;;;3.90;1.83;;;20.20;67.70;;;;;;5057604;28;20062;-62
2023/05/20 11:39:13;;;;;;;2.88;1.70;;;20.30;69.40;;;;;;5073462;28;20103;-62
2023/05/20 11:41:41;;;;;;;3.65;1.80;;;20.50;66.80;;;;;;5073421;28;20017;-62
2023/05/20 11:44:11;;;;;;;3.67;1.52;;;20.60;67.60;;;;;;5055370;28;20063;-62
2023/05/20 11:46:41;;;;;;;2.22;1.45;;;20.70;66.00;;;;;;5055966;28;20016;-67
2023/05/20 11:49:07;;;;;;;3.13;1.50;;;20.80;66.90;;;;;;5072785;28;20049;-62
2023/05/20 11:51:33;;;;;;;1.77;1.48;;;21.00;65.30;;;;;;5072834;28;20020;-62
2023/05/20 11:54:00;;;;;;;2.40;1.40;;;21.10;64.30;;;;;;5071515;28;20029;-62
2023/05/20 11:56:29;;;;;;;4.15;1.50;;;21.20;62.70;;;;;;5036552;28;20021;-62
2023/05/20 11:58:58;;;;;;;1.90;1.45;;;21.20;62.60;;;;;;5052875;28;20048;-62
2023/05/20 12:01:23;;;;;;;4.68;1.42;;;21.20;65.10;;;;;;5035677;28;20063;-62
2023/05/20 12:03:49;;;;;;;3.00;1.60;;;21.40;64.30;;;;;;5041827;28;20110;-62
2023/05/20 12:06:16;;;;;;;3.28;1.60;;;21.50;63.60;;;;;;5056282;28;20039;-62
2023/05/20 12:08:42;;;;;;;3.03;1.73;;;21.60;62.00;;;;;;5073237;28;20028;-62
2023/05/20 12:11:07;;;;;;;3.92;1.60;;;21.60;61.70;;;;;;5055823;28;20472;-62
2023/05/20 12:13:33;;;;;;;2.97;1.40;;;21.70;62.30;;;;;;5072667;28;20480;-62
2023/05/20 12:15:59;;;;;;;2.88;1.80;;;21.80;63.00;;;;;;5069771;28;20024;-62
2023/05/20 12:18:24;;;;;;;2.70;1.50;;;21.80;62.70;;;;;;5072687;28;20028;-63
2023/05/20 12:20:50;;;;;;;4.35;1.50;;;21.80;62.50;;;;;;5053359;28;20032;-62
2023/05/20 12:23:16;;;;;;;2.40;1.42;;;21.90;64.10;;;;;;5056449;28;20022;-62
2023/05/20 12:25:41;;;;;;;2.40;1.42;;;22.10;63.50;;;;;;5054877;28;20511;-63
2023/05/20 12:28:07;;;;;;;3.63;1.65;;;22.10;62.40;;;;;;5072050;28;20043;-66
2023/05/20 12:30:33;;;;;;;2.65;1.73;;;22.10;62.40;;;;;;5071757;28;20029;-61
2023/05/20 12:32:58;;;;;;;3.25;1.70;;;22.00;61.40;;;;;;5072798;28;20052;-60
2023/05/20 12:35:35;;;;;;;6.30;1.73;;;21.80;61.70;;;;;;5073195;28;20028;-63
2023/05/20 12:38:01;;;;;;;3.30;1.58;;;21.80;61.90;;;;;;5073275;28;20116;-64
2023/05/20 12:40:26;;;;;;;2.78;1.70;;;21.80;61.90;;;;;;5072600;28;20056;-64
2023/05/20 12:42:52;;;;;;;2.88;1.67;;;21.80;61.70;;;;;;5073547;28;20025;-65
2023/05/20 12:45:17;;;;;;;3.13;1.50;;;21.60;60.70;;;;;;5073269;28;20078;-63
2023/05/20 12:47:43;;;;;;;3.58;1.70;;;21.40;61.50;;;;;;5072790;28;20055;-64